createdAt,value
2023-01-05T00:01:57.594Z,9.27
2023-01-05T00:04:24.974Z,9.05
2023-01-05T00:06:52.980Z,9.15
2023-01-05T00:09:20.528Z,8.10
2023-01-05T00:12:06.605Z,7.88
2023-01-05T00:14:53.129Z,8.88
2023-01-05T00:17:55.919Z,8.10
2023-01-05T00:21:08.721Z,8.25
2023-01-05T00:23:35.934Z,8.23
2023-01-05T00:26:03.245Z,8.43
2023-01-05T00:28:59.156Z,9.25
2023-01-05T00:31:28.158Z,7.85
2023-01-05T00:33:55.496Z,7.90
2023-01-05T00:36:22.750Z,9.38
2023-01-05T00:38:50.270Z,9.50
2023-01-05T00:41:18.419Z,11.15
2023-01-05T00:43:45.643Z,11.48
2023-01-05T00:46:25.332Z,9.82
2023-01-05T00:48:52.639Z,9.65
2023-01-05T00:51:22.436Z,9.10
2023-01-05T00:53:49.822Z,8.75
2023-01-05T00:56:17.075Z,8.70
2023-01-05T00:58:44.604Z,9.57
2023-01-05T01:01:12.865Z,9.68
2023-01-05T01:03:40.707Z,9.27
2023-01-05T01:06:38.318Z,9.82
2023-01-05T01:10:01.024Z,10.30
2023-01-05T01:12:28.296Z,10.43
2023-01-05T01:14:55.584Z,9.85
2023-01-05T01:17:22.841Z,9.95
2023-01-05T01:19:50.119Z,11.07
2023-01-05T01:22:43.060Z,10.85
2023-01-05T01:25:10.412Z,10.85
2023-01-05T01:27:37.766Z,9.68
2023-01-05T01:30:05.663Z,10.38
2023-01-05T01:32:32.950Z,9.63
2023-01-05T01:35:00.183Z,9.77
2023-01-05T01:37:55.609Z,10.00
2023-01-05T01:40:23.054Z,10.10
2023-01-05T01:43:18.019Z,11.38
2023-01-05T01:45:45.594Z,11.23
2023-01-05T01:48:18.121Z,10.60
2023-01-05T01:50:51.449Z,10.75
2023-01-05T01:53:30.233Z,10.95
2023-01-05T01:56:30.607Z,10.70
2023-01-05T01:58:58.041Z,10.77
2023-01-05T02:01:25.523Z,10.68
2023-01-05T02:03:55.969Z,10.80
2023-01-05T02:06:23.787Z,10.73
2023-01-05T02:08:51.862Z,11.13
2023-01-05T02:14:52.851Z,10.93
2023-01-05T02:18:22.593Z,11.65
2023-01-05T02:21:25.299Z,11.82
2023-01-05T02:24:15.144Z,11.82
2023-01-05T02:26:53.875Z,12.88
2023-01-05T02:30:03.935Z,12.55
2023-01-05T02:32:47.487Z,13.25
2023-01-05T02:35:32.819Z,13.23
2023-01-05T02:38:21.291Z,14.35
2023-01-05T02:41:00.637Z,15.05
2023-01-05T02:43:29.256Z,15.30
2023-01-05T02:45:56.708Z,14.73
2023-01-05T02:48:24.722Z,15.45
2023-01-05T02:51:01.691Z,15.40
2023-01-05T02:53:37.706Z,16.15
2023-01-05T02:56:19.879Z,15.27
2023-01-05T02:58:54.400Z,15.98
2023-01-05T03:01:48.438Z,16.75
2023-01-05T03:04:31.161Z,15.77
2023-01-05T03:07:09.608Z,17.42
2023-01-05T03:09:39.807Z,17.05
2023-01-05T03:12:53.027Z,17.20
2023-01-05T03:15:28.472Z,17.58
2023-01-05T03:18:23.903Z,17.08
2023-01-05T03:20:55.108Z,16.98
2023-01-05T03:23:42.364Z,18.10
2023-01-05T03:30:08.572Z,15.60
2023-01-05T03:33:02.537Z,14.53
2023-01-05T03:35:57.316Z,15.13
2023-01-05T03:38:45.044Z,15.20
2023-01-05T03:41:16.037Z,14.52
2023-01-05T03:43:46.563Z,15.20
2023-01-05T03:46:22.291Z,15.68
2023-01-05T03:48:50.784Z,15.05
2023-01-05T03:51:20.736Z,12.68
2023-01-05T03:53:52.508Z,12.43
2023-01-05T03:56:20.689Z,12.52
2023-01-05T03:59:18.521Z,13.05
2023-01-05T04:01:46.014Z,12.18
2023-01-05T04:04:41.013Z,12.90
2023-01-05T04:10:16.641Z,11.38
2023-01-05T04:12:46.446Z,11.05
2023-01-05T04:15:14.127Z,11.27
2023-01-05T04:22:07.604Z,12.40
2023-01-05T04:24:35.129Z,12.43
2023-01-05T04:27:04.941Z,11.50
2023-01-05T04:29:32.542Z,11.15
2023-01-05T04:32:01.345Z,10.98
2023-01-05T04:34:28.978Z,11.25
2023-01-05T04:36:58.136Z,11.93
2023-01-05T04:39:25.740Z,10.48
2023-01-05T04:41:54.762Z,10.18
2023-01-05T04:44:22.095Z,9.43
2023-01-05T04:46:50.675Z,9.07
2023-01-05T04:49:19.057Z,8.98
2023-01-05T04:51:49.834Z,8.77
2023-01-05T04:54:19.055Z,9.75
2023-01-05T04:56:47.147Z,10.32
2023-01-05T04:59:14.552Z,10.23
2023-01-05T05:01:43.684Z,10.85
2023-01-05T05:04:13.606Z,10.98
2023-01-05T05:06:41.418Z,10.48
2023-01-05T05:09:08.814Z,10.15
2023-01-05T05:11:39.021Z,10.63
2023-01-05T05:14:07.745Z,9.05
2023-01-05T05:16:35.069Z,8.80
2023-01-05T05:19:03.477Z,8.25
2023-01-05T05:21:31.026Z,9.52
2023-01-05T05:23:58.240Z,9.20
2023-01-05T05:26:25.534Z,9.48
2023-01-05T05:28:52.873Z,9.93
2023-01-05T05:31:20.206Z,11.43
2023-01-05T05:33:47.468Z,11.05
2023-01-05T05:36:15.175Z,10.73
2023-01-05T05:38:42.555Z,11.75
2023-01-05T05:41:10.262Z,11.93
2023-01-05T05:43:37.491Z,12.48
2023-01-05T05:46:05.093Z,11.75
2023-01-05T05:48:32.466Z,13.18
2023-01-05T05:50:59.688Z,11.90
2023-01-05T05:53:26.963Z,12.50
2023-01-05T05:55:54.292Z,12.98
2023-01-05T05:58:21.649Z,12.90
2023-01-05T06:01:17.072Z,12.88
2023-01-05T06:03:44.367Z,13.73
2023-01-05T06:06:11.817Z,14.27
2023-01-05T06:09:31.655Z,14.38
2023-01-05T06:12:01.324Z,15.77
2023-01-05T06:14:28.719Z,15.48
2023-01-05T06:16:55.967Z,16.02
2023-01-05T06:19:23.236Z,16.88
2023-01-05T06:21:50.443Z,15.73
2023-01-05T06:24:17.814Z,18.58
2023-01-05T06:26:45.725Z,18.88
2023-01-05T06:29:13.025Z,17.92
2023-01-05T06:31:41.082Z,18.30
2023-01-05T06:34:08.471Z,19.30
2023-01-05T06:36:35.720Z,18.73
2023-01-05T06:39:03.031Z,20.55
2023-01-05T06:41:30.795Z,18.98
2023-01-05T06:43:58.025Z,19.90
2023-01-05T06:46:25.856Z,19.77
2023-01-05T06:48:53.184Z,18.52
2023-01-05T06:51:20.513Z,16.80
2023-01-05T06:53:47.783Z,16.23
2023-01-05T06:56:15.023Z,15.05
2023-01-05T06:58:51.215Z,15.40
2023-01-05T07:01:18.617Z,14.20
2023-01-05T07:03:45.959Z,14.52
2023-01-05T07:06:15.334Z,13.05
2023-01-05T07:08:42.976Z,12.13
2023-01-05T07:11:10.212Z,11.63
2023-01-05T07:13:37.490Z,11.38
2023-01-05T07:16:05.119Z,10.95
2023-01-05T07:18:32.393Z,11.57
2023-01-05T07:21:03.138Z,11.43
2023-01-05T07:23:30.431Z,11.23
2023-01-05T07:26:01.317Z,10.50
2023-01-05T07:28:28.637Z,10.82
2023-01-05T07:31:02.267Z,10.60
2023-01-05T07:33:31.564Z,10.13
2023-01-05T07:36:04.159Z,9.77
2023-01-05T07:38:32.718Z,9.77
2023-01-05T07:41:11.009Z,9.40
2023-01-05T07:43:46.051Z,9.52
2023-01-05T07:46:13.522Z,10.18
2023-01-05T07:48:41.585Z,10.18
2023-01-05T07:51:11.004Z,10.60
2023-01-05T07:53:44.363Z,11.07
2023-01-05T07:56:12.658Z,11.48
2023-01-05T07:58:40.343Z,12.13
2023-01-05T08:01:13.057Z,12.05
2023-01-05T08:03:41.099Z,11.60
2023-01-05T08:06:14.486Z,11.90
2023-01-05T08:08:42.264Z,12.52
2023-01-05T08:11:11.513Z,13.10
2023-01-05T08:17:05.983Z,14.70
2023-01-05T08:19:34.029Z,15.48
2023-01-05T08:24:42.870Z,17.15
2023-01-05T08:27:10.505Z,18.00
2023-01-05T08:29:37.858Z,19.23
2023-01-05T08:32:05.931Z,18.08
2023-01-05T08:34:35.004Z,16.80
2023-01-05T08:37:02.424Z,16.70
2023-01-05T08:39:29.670Z,15.88
2023-01-05T08:42:02.243Z,15.55
2023-01-05T08:44:30.136Z,15.13
2023-01-05T08:47:00.283Z,16.05
2023-01-05T08:49:27.704Z,15.93
2023-01-05T08:51:54.907Z,15.65
2023-01-05T08:54:26.145Z,16.90
2023-01-05T08:56:53.427Z,16.27
2023-01-05T08:59:20.751Z,16.42
2023-01-05T09:01:48.201Z,16.45
2023-01-05T09:04:15.930Z,17.65
2023-01-05T09:06:43.447Z,18.15
2023-01-05T09:09:12.574Z,18.65
2023-01-05T09:11:40.431Z,18.55
2023-01-05T09:14:07.823Z,20.73
2023-01-05T09:17:05.172Z,21.67
2023-01-05T09:19:22.898Z,24.25
2023-01-05T09:21:50.430Z,24.27
2023-01-05T09:24:18.125Z,24.63
2023-01-05T09:26:54.081Z,24.30
2023-01-05T09:29:37.690Z,26.08
2023-01-05T09:32:05.881Z,26.13
2023-01-05T09:34:33.301Z,27.20
2023-01-05T09:37:00.530Z,27.88
2023-01-05T09:39:28.729Z,25.90
2023-01-05T09:41:59.233Z,26.33
2023-01-05T09:44:40.601Z,26.98
2023-01-05T09:47:29.796Z,24.27
2023-01-05T09:49:58.731Z,25.85
2023-01-05T09:52:26.446Z,22.88
2023-01-05T09:54:53.976Z,24.60
2023-01-05T09:57:25.177Z,24.23
2023-01-05T09:59:59.075Z,20.17
2023-01-05T10:02:38.343Z,20.17
2023-01-05T10:05:07.099Z,16.02
2023-01-05T10:07:40.626Z,15.82
2023-01-05T10:10:30.762Z,12.43
2023-01-05T10:13:05.474Z,11.70
2023-01-05T10:15:43.706Z,11.45
2023-01-05T10:18:32.145Z,11.80
2023-01-05T10:21:41.793Z,12.27
2023-01-05T10:24:35.939Z,13.25
2023-01-05T10:27:56.410Z,14.27
2023-01-05T10:30:30.617Z,13.77
2023-01-05T10:33:38.912Z,14.93
2023-01-05T10:36:49.288Z,18.02
2023-01-05T10:39:29.351Z,16.30
2023-01-05T10:42:08.279Z,18.92
2023-01-05T10:44:42.622Z,18.23
2023-01-05T10:47:12.044Z,17.80
2023-01-05T10:49:43.088Z,21.08
2023-01-05T10:52:17.407Z,23.85
2023-01-05T10:54:45.851Z,25.92
2023-01-05T10:57:35.284Z,29.95
2023-01-05T11:00:11.840Z,26.42
2023-01-05T11:02:50.203Z,26.77
2023-01-05T11:05:37.601Z,27.08
2023-01-05T11:08:26.997Z,26.35
2023-01-05T11:10:56.751Z,27.40
2023-01-05T11:13:31.692Z,26.02
2023-01-05T11:16:16.750Z,27.20
2023-01-05T11:18:54.222Z,28.38
2023-01-05T11:21:22.769Z,30.13
2023-01-05T11:23:56.185Z,28.92
2023-01-05T11:26:32.460Z,30.40
2023-01-05T11:29:08.886Z,29.05
2023-01-05T11:34:19.713Z,28.63
2023-01-05T11:37:02.594Z,31.08
2023-01-05T11:39:39.160Z,29.45
2023-01-05T11:42:25.901Z,28.73
2023-01-05T11:44:55.365Z,28.38
2023-01-05T11:47:31.437Z,27.88
2023-01-05T11:50:02.904Z,28.45
2023-01-05T11:52:37.115Z,28.13
2023-01-05T11:55:19.762Z,28.38
2023-01-05T11:57:50.524Z,26.77
2023-01-05T12:00:30.524Z,27.10
2023-01-05T12:03:21.535Z,27.70
2023-01-05T12:05:58.250Z,27.48
2023-01-05T12:08:51.907Z,28.38
2023-01-05T12:11:22.031Z,29.88
2023-01-05T12:14:14.009Z,30.50
2023-01-05T12:16:47.105Z,31.13
2023-01-05T12:19:20.396Z,30.67
2023-01-05T12:22:26.851Z,32.45
2023-01-05T12:25:20.190Z,31.75
2023-01-05T12:28:03.287Z,30.98
2023-01-05T12:34:03.419Z,30.52
2023-01-05T12:36:48.596Z,31.65
2023-01-05T12:39:15.821Z,31.10
2023-01-05T12:42:10.993Z,31.13
2023-01-05T12:45:21.780Z,30.40
2023-01-05T12:48:17.665Z,30.42
2023-01-05T12:51:08.320Z,29.83
2023-01-05T12:53:35.565Z,29.00
2023-01-05T12:56:14.821Z,29.23
2023-01-05T12:58:57.131Z,30.75
2023-01-05T13:01:30.408Z,28.88
2023-01-05T13:04:11.730Z,28.50
2023-01-05T13:06:44.053Z,29.02
2023-01-05T13:09:21.387Z,26.30
2023-01-05T13:11:58.183Z,26.65
2023-01-05T13:14:34.712Z,28.50
2023-01-05T13:17:09.639Z,26.92
2023-01-05T13:19:41.593Z,27.33
2023-01-05T13:22:26.417Z,26.40
2023-01-05T13:25:03.940Z,26.95
2023-01-05T13:27:32.191Z,26.25
2023-01-05T13:30:02.610Z,25.08
2023-01-05T13:33:04.950Z,26.27
2023-01-05T13:36:08.138Z,26.95
2023-01-05T13:38:53.600Z,28.10
2023-01-05T13:41:39.924Z,26.10
2023-01-05T13:44:15.919Z,26.98
2023-01-05T13:47:01.642Z,27.05
2023-01-05T13:49:47.550Z,26.87
2023-01-05T13:52:26.983Z,28.40
2023-01-05T13:55:02.314Z,27.42
2023-01-05T13:57:39.246Z,27.13
2023-01-05T14:00:48.196Z,28.58
2023-01-05T14:03:27.329Z,27.75
2023-01-05T14:06:02.758Z,28.48
2023-01-05T14:08:42.762Z,29.00
2023-01-05T14:11:25.081Z,29.15
2023-01-05T14:14:08.539Z,28.00
2023-01-05T14:16:36.039Z,29.25
2023-01-05T14:19:13.433Z,31.10
2023-01-05T14:22:00.311Z,29.58
2023-01-05T14:27:11.291Z,30.17
2023-01-05T14:29:45.081Z,30.08
2023-01-05T14:32:34.333Z,30.92
2023-01-05T14:35:20.470Z,29.75
2023-01-05T14:37:55.967Z,29.95
2023-01-05T14:40:37.423Z,30.13
2023-01-05T14:43:19.590Z,29.48
2023-01-05T14:46:05.211Z,31.92
2023-01-05T14:48:58.032Z,30.25
2023-01-05T14:51:29.726Z,30.42
2023-01-05T14:54:07.276Z,29.45
2023-01-05T14:56:37.252Z,29.05
2023-01-05T14:59:26.654Z,27.92
2023-01-05T15:01:59.493Z,29.52
2023-01-05T15:04:40.977Z,30.05
2023-01-05T15:07:37.777Z,31.15
2023-01-05T15:10:36.277Z,32.00
2023-01-05T15:13:37.335Z,30.90
2023-01-05T15:16:15.300Z,32.28
2023-01-05T15:19:12.184Z,31.38
2023-01-05T15:21:51.537Z,32.40
2023-01-05T15:24:37.093Z,31.88
2023-01-05T15:27:32.744Z,32.53
2023-01-05T15:30:22.350Z,32.58
2023-01-05T15:33:00.221Z,32.00
2023-01-05T15:35:38.020Z,32.58
2023-01-05T15:38:26.549Z,33.00
2023-01-05T15:41:07.616Z,33.63
2023-01-05T15:43:37.172Z,33.05
2023-01-05T15:46:05.194Z,33.10
2023-01-05T15:48:44.195Z,35.08
2023-01-05T15:51:29.573Z,33.58
2023-01-05T15:53:59.264Z,33.33
2023-01-05T15:56:35.585Z,32.55
2023-01-05T16:01:31.257Z,33.03
2023-01-05T16:04:12.506Z,33.15
2023-01-05T16:06:40.937Z,32.92
2023-01-05T16:09:20.566Z,34.22
2023-01-05T16:11:50.081Z,32.83
2023-01-05T16:14:32.259Z,33.45
2023-01-05T16:17:04.409Z,34.03
2023-01-05T16:19:40.980Z,34.83
2023-01-05T16:22:31.625Z,33.80
2023-01-05T16:25:16.994Z,32.42
2023-01-05T16:27:48.157Z,33.45
2023-01-05T16:30:34.066Z,34.35
2023-01-05T16:33:05.375Z,33.13
2023-01-05T16:35:44.067Z,33.67
2023-01-05T16:38:11.471Z,33.38
2023-01-05T16:40:51.060Z,34.70
2023-01-05T16:43:41.641Z,34.42
2023-01-05T16:46:20.492Z,33.10
2023-01-05T16:48:54.650Z,33.42
2023-01-05T16:51:36.069Z,33.47
2023-01-05T16:54:37.207Z,33.42
2023-01-05T16:57:29.046Z,32.22
2023-01-05T16:59:56.947Z,34.22
2023-01-05T17:02:34.626Z,33.95
2023-01-05T17:05:02.077Z,35.33
2023-01-05T17:07:29.357Z,31.92
2023-01-05T17:09:56.724Z,34.83
2023-01-05T17:12:24.016Z,34.70
2023-01-05T17:14:51.747Z,34.53
2023-01-05T17:19:54.043Z,34.58
2023-01-05T17:22:21.747Z,33.85
2023-01-05T17:24:49.425Z,34.80
2023-01-05T17:27:16.703Z,35.30
2023-01-05T17:29:44.046Z,36.75
2023-01-05T17:32:11.613Z,34.28
2023-01-05T17:34:41.002Z,34.25
2023-01-05T17:37:15.994Z,35.20
2023-01-05T17:39:43.266Z,34.97
2023-01-05T17:42:29.275Z,35.40
2023-01-05T17:44:56.990Z,35.88
2023-01-05T17:47:24.342Z,35.63
2023-01-05T17:49:51.641Z,35.53
2023-01-05T17:52:18.892Z,36.65
2023-01-05T17:54:46.249Z,36.60
2023-01-05T17:57:13.600Z,36.97
2023-01-05T18:02:09.975Z,37.85
2023-01-05T18:04:37.384Z,38.75
2023-01-05T18:07:04.666Z,38.90
2023-01-05T18:09:33.718Z,39.28
2023-01-05T18:12:01.332Z,38.15
2023-01-05T18:14:28.706Z,39.33
2023-01-05T18:16:55.930Z,39.42
2023-01-05T18:19:23.166Z,38.88
2023-01-05T18:21:50.525Z,38.42
2023-01-05T18:24:17.876Z,40.22
2023-01-05T18:26:45.500Z,40.53
2023-01-05T18:29:13.837Z,39.47
2023-01-05T18:31:43.417Z,39.50
2023-01-05T18:34:10.838Z,41.65
2023-01-05T18:36:38.230Z,40.38
2023-01-05T18:39:05.469Z,40.47
2023-01-05T18:41:32.935Z,39.25
2023-01-05T18:44:00.336Z,40.88
2023-01-05T18:46:29.946Z,40.67
2023-01-05T18:48:57.263Z,42.95
2023-01-05T18:51:24.514Z,41.92
2023-01-05T18:53:51.729Z,41.50
2023-01-05T18:56:18.983Z,43.40
2023-01-05T18:58:46.475Z,43.17
2023-01-05T19:01:19.075Z,41.92
2023-01-05T19:03:46.852Z,41.75
2023-01-05T19:06:16.779Z,42.20
2023-01-05T19:08:45.028Z,43.15
2023-01-05T19:11:14.723Z,42.70
2023-01-05T19:13:45.006Z,43.08
2023-01-05T19:16:15.145Z,43.33
2023-01-05T19:18:48.504Z,42.28
2023-01-05T19:21:16.429Z,43.65
2023-01-05T19:23:46.144Z,44.47
2023-01-05T19:26:13.487Z,45.50
2023-01-05T19:28:40.855Z,46.15
2023-01-05T19:31:12.459Z,43.70
2023-01-05T19:33:40.796Z,44.58
2023-01-05T19:36:14.585Z,45.65
2023-01-05T19:38:43.023Z,44.55
2023-01-05T19:41:19.938Z,46.22
2023-01-05T19:43:52.260Z,45.70
2023-01-05T19:46:21.733Z,45.30
2023-01-05T19:48:50.007Z,48.42
2023-01-05T19:51:23.256Z,45.72
2023-01-05T19:53:58.605Z,46.90
2023-01-05T19:56:29.851Z,46.15
2023-01-05T19:58:59.921Z,45.45
2023-01-05T20:01:29.078Z,44.70
2023-01-05T20:03:57.155Z,45.63
2023-01-05T20:06:33.535Z,45.35
2023-01-05T20:11:35.978Z,44.47
2023-01-05T20:14:10.736Z,47.17
2023-01-05T20:16:39.377Z,46.97
2023-01-05T20:19:07.228Z,46.13
2023-01-05T20:21:34.510Z,47.45
2023-01-05T20:24:02.964Z,46.15
2023-01-05T20:26:31.264Z,44.88
2023-01-05T20:29:02.848Z,46.17
2023-01-05T20:31:39.969Z,46.67
2023-01-05T20:34:11.639Z,46.25
2023-01-05T20:36:43.294Z,46.47
2023-01-05T20:39:15.960Z,44.03
2023-01-05T20:41:47.100Z,45.45
2023-01-05T20:44:15.423Z,45.55
2023-01-05T20:46:47.421Z,45.03
2023-01-05T20:49:17.889Z,46.05
2023-01-05T20:51:45.421Z,46.53
2023-01-05T20:54:14.744Z,45.63
2023-01-05T20:56:49.245Z,47.03
2023-01-05T20:59:30.081Z,48.67
2023-01-05T21:01:58.977Z,46.75
2023-01-05T21:04:28.560Z,47.60
2023-01-05T21:06:59.508Z,45.00
2023-01-05T21:09:30.880Z,47.53
2023-01-05T21:18:52.175Z,45.67
2023-01-05T21:21:21.442Z,50.90
2023-01-05T21:23:51.180Z,49.03
2023-01-05T21:26:27.574Z,46.80
2023-01-05T21:28:55.548Z,47.70
2023-01-05T21:31:25.546Z,47.35
2023-01-05T21:34:03.568Z,45.70
2023-01-05T21:36:38.273Z,46.17
2023-01-05T21:39:08.828Z,47.58
2023-01-05T21:41:57.601Z,46.10
2023-01-05T21:44:26.119Z,45.92
2023-01-05T21:46:54.635Z,47.15
2023-01-05T21:49:23.040Z,48.30
2023-01-05T21:52:09.325Z,48.40
2023-01-05T21:57:26.259Z,50.15
2023-01-05T21:59:54.081Z,49.33
2023-01-05T22:02:21.402Z,48.33
2023-01-05T22:04:48.864Z,50.10
2023-01-05T22:07:16.455Z,49.30
2023-01-05T22:09:43.753Z,46.47
2023-01-05T22:12:11.091Z,47.83
2023-01-05T22:14:39.116Z,46.90
2023-01-05T22:17:08.151Z,46.75
2023-01-05T22:19:36.292Z,46.45
2023-01-05T22:22:04.167Z,45.42
2023-01-05T22:24:31.535Z,45.58
2023-01-05T22:26:59.185Z,46.33
2023-01-05T22:29:26.604Z,44.70
2023-01-05T22:31:54.300Z,44.90
2023-01-05T22:34:21.720Z,44.58
2023-01-05T22:36:49.318Z,43.60
2023-01-05T22:39:16.818Z,41.45
2023-01-05T22:41:55.341Z,40.55
2023-01-05T22:44:22.629Z,37.78
2023-01-05T22:46:49.931Z,35.53
2023-01-05T22:49:17.163Z,34.40
2023-01-05T22:51:46.254Z,35.53
2023-01-05T22:54:18.596Z,34.13
2023-01-05T22:56:45.953Z,34.20
2023-01-05T22:59:13.251Z,35.38
2023-01-05T23:01:44.992Z,34.53
2023-01-05T23:04:12.614Z,33.53
2023-01-05T23:06:40.595Z,32.65
2023-01-05T23:09:09.550Z,33.38
2023-01-05T23:11:39.515Z,33.58
2023-01-05T23:14:09.832Z,32.33
2023-01-05T23:16:37.679Z,32.78
2023-01-05T23:19:06.689Z,31.15
2023-01-05T23:21:34.190Z,31.73
2023-01-05T23:24:01.662Z,32.63
2023-01-05T23:26:29.236Z,32.15
2023-01-05T23:28:57.203Z,31.13
2023-01-05T23:31:27.853Z,31.60
2023-01-05T23:33:56.155Z,31.50
2023-01-05T23:36:23.831Z,31.08
2023-01-05T23:38:51.866Z,28.85
2023-01-05T23:41:19.796Z,32.80
2023-01-05T23:43:47.235Z,29.15
2023-01-05T23:46:20.457Z,27.90
2023-01-05T23:49:01.847Z,25.65
2023-01-05T23:51:29.421Z,24.25
2023-01-05T23:53:57.416Z,22.85
2023-01-05T23:56:27.523Z,21.80
2023-01-05T23:59:04.273Z,20.30
